Time;durP1;ratioP1;P1;durP2;ratioP2;P2;SDS_P1;SDS_P2;PMS_P1;PMS_P2;Temp;Humidity;BMP_temperature;BMP_pressure;BME280_temperature;BME280_humidity;BME280_pressure;Samples;Min_cycle;Max_cycle;Signal;HPM_P1;HPM_P2
2023/05/12 00:00:38;;;;;;;38.90;34.23;;;11.00;91.30;;;;;;5017288;28;20407;-86
2023/05/12 00:03:03;;;;;;;40.70;35.20;;;10.90;91.40;;;;;;5016026;28;20314;-86
2023/05/12 00:05:29;;;;;;;39.50;35.23;;;10.90;91.60;;;;;;5015167;28;20173;-87
2023/05/12 00:07:55;;;;;;;44.77;34.00;;;10.90;91.80;;;;;;5016511;28;20540;-88
2023/05/12 00:10:20;;;;;;;41.97;34.70;;;11.00;91.90;;;;;;5014163;28;20225;-87
2023/05/12 00:12:46;;;;;;;40.70;32.90;;;10.90;91.90;;;;;;5016524;28;20184;-85
2023/05/12 00:15:12;;;;;;;39.13;34.00;;;10.90;92.00;;;;;;5017703;28;20668;-87
2023/05/12 00:17:38;;;;;;;38.17;31.90;;;10.80;92.00;;;;;;5019226;28;20241;-86
2023/05/12 00:20:04;;;;;;;39.50;32.03;;;10.80;92.00;;;;;;5017397;28;20228;-86
2023/05/12 00:22:30;;;;;;;36.93;30.27;;;10.70;92.10;;;;;;5019979;28;20180;-86
2023/05/12 00:24:56;;;;;;;35.50;30.13;;;10.70;92.20;;;;;;5017391;28;20651;-85
2023/05/12 00:27:21;;;;;;;35.93;29.30;;;10.70;92.20;;;;;;5018697;28;20184;-85
2023/05/12 00:29:47;;;;;;;31.17;27.77;;;10.70;92.20;;;;;;5017453;28;20185;-87
2023/05/12 00:32:13;;;;;;;31.30;27.97;;;10.70;92.20;;;;;;5017296;28;20201;-87
2023/05/12 00:34:38;;;;;;;30.73;27.03;;;10.80;92.20;;;;;;5017042;28;20233;-86
2023/05/12 00:37:05;;;;;;;29.63;25.93;;;10.80;92.20;;;;;;5017627;28;20188;-85
2023/05/12 00:39:30;;;;;;;35.00;31.80;;;10.80;92.10;;;;;;5017664;28;20233;-85
2023/05/12 00:41:57;;;;;;;33.90;30.30;;;10.70;92.00;;;;;;5016882;28;20197;-85
2023/05/12 00:44:22;;;;;;;31.97;29.07;;;10.70;92.00;;;;;;5016643;28;20181;-85
2023/05/12 00:46:48;;;;;;;31.43;28.13;;;10.80;92.00;;;;;;5021446;28;20184;-86
2023/05/12 00:49:14;;;;;;;28.13;25.43;;;10.80;91.90;;;;;;5021175;28;20282;-86
2023/05/12 00:51:39;;;;;;;30.77;27.57;;;10.90;91.90;;;;;;5021049;28;20205;-86
2023/05/12 00:54:05;;;;;;;28.93;25.70;;;11.00;91.70;;;;;;5021421;28;20170;-86
2023/05/12 00:56:38;;;;;;;27.50;24.93;;;11.00;91.50;;;;;;5021113;28;20553;-86
2023/05/12 00:59:06;;;;;;;26.17;23.30;;;11.00;91.40;;;;;;5023147;28;20150;-85
2023/05/12 01:01:33;;;;;;;26.50;23.97;;;11.10;91.30;;;;;;5021046;28;20694;-85
2023/05/12 01:04:00;;;;;;;34.03;24.53;;;11.10;91.20;;;;;;5023225;28;20169;-86
2023/05/12 01:06:52;;;;;;;26.90;23.83;;;11.10;91.10;;;;;;5021704;28;20243;-86
2023/05/12 01:09:18;;;;;;;24.53;22.20;;;11.20;91.00;;;;;;5023444;28;20162;-85
2023/05/12 01:11:44;;;;;;;23.33;21.43;;;11.30;91.00;;;;;;5021386;28;20273;-85
2023/05/12 01:14:09;;;;;;;23.60;21.40;;;11.40;91.00;;;;;;5021427;28;20189;-85
2023/05/12 01:16:41;;;;;;;23.60;21.33;;;11.40;90.90;;;;;;5021262;28;20315;-86
2023/05/12 01:19:13;;;;;;;22.97;21.13;;;11.50;90.70;;;;;;5023359;28;20172;-85
2023/05/12 01:21:39;;;;;;;21.23;19.50;;;11.40;90.70;;;;;;5021214;28;20198;-86
2023/05/12 01:24:07;;;;;;;21.30;19.30;;;11.50;90.60;;;;;;5021391;28;20231;-85
2023/05/12 01:26:33;;;;;;;21.50;19.87;;;11.50;90.40;;;;;;5021333;28;20243;-86
2023/05/12 01:29:00;;;;;;;21.87;20.17;;;11.60;90.20;;;;;;5022234;28;20185;-86
2023/05/12 01:31:26;;;;;;;20.33;18.30;;;11.70;89.90;;;;;;5022747;28;20268;-86
2023/05/12 01:33:52;;;;;;;19.40;17.90;;;11.60;89.60;;;;;;5021268;28;20268;-85
2023/05/12 01:36:17;;;;;;;20.57;19.07;;;11.70;89.50;;;;;;5023245;28;20722;-86
2023/05/12 01:38:43;;;;;;;19.80;18.10;;;11.70;89.30;;;;;;5021547;28;20200;-84
2023/05/12 01:41:08;;;;;;;19.43;17.93;;;11.80;89.30;;;;;;5021719;28;20201;-85
2023/05/12 01:43:34;;;;;;;19.33;17.83;;;11.70;89.20;;;;;;5023081;28;20178;-84
2023/05/12 01:45:59;;;;;;;19.10;17.57;;;11.80;89.10;;;;;;5021567;28;20174;-86
2023/05/12 01:48:25;;;;;;;19.40;17.77;;;11.80;89.00;;;;;;5021297;28;20197;-86
2023/05/12 01:50:50;;;;;;;16.00;14.23;;;11.80;88.90;;;;;;5021687;28;20209;-85
2023/05/12 01:53:16;;;;;;;12.53;11.23;;;11.90;88.90;;;;;;5021271;28;20182;-85
2023/05/12 01:55:41;;;;;;;11.13;10.23;;;11.90;88.80;;;;;;5023561;28;20212;-86
2023/05/12 01:58:07;;;;;;;11.37;10.40;;;11.90;88.60;;;;;;5020905;28;20640;-86
2023/05/12 02:00:32;;;;;;;10.93;9.90;;;12.00;88.50;;;;;;5022978;28;20280;-86
2023/05/12 02:02:58;;;;;;;11.73;10.53;;;12.00;88.40;;;;;;5021401;28;20196;-84
2023/05/12 02:05:23;;;;;;;11.30;10.30;;;12.00;88.20;;;;;;5023166;28;20804;-84
2023/05/12 02:07:49;;;;;;;10.17;9.30;;;12.00;88.10;;;;;;5021270;28;20268;-84
2023/05/12 02:10:15;;;;;;;12.37;10.50;;;12.10;87.90;;;;;;5021776;28;20319;-85
2023/05/12 02:12:40;;;;;;;10.87;9.93;;;12.10;87.70;;;;;;5020993;28;20644;-86
2023/05/12 02:15:06;;;;;;;11.10;10.00;;;12.10;87.60;;;;;;5020870;28;20197;-84
2023/05/12 02:17:31;;;;;;;10.27;9.43;;;12.10;87.40;;;;;;5022723;28;20170;-86
2023/05/12 02:19:57;;;;;;;11.43;10.33;;;12.10;87.50;;;;;;5020694;28;20264;-85
2023/05/12 02:22:22;;;;;;;11.57;9.97;;;12.10;87.50;;;;;;5019955;28;20654;-85
2023/05/12 02:24:48;;;;;;;10.27;9.27;;;12.20;87.30;;;;;;5021149;28;20188;-84
2023/05/12 02:27:13;;;;;;;12.77;10.53;;;12.20;87.30;;;;;;5019022;28;20251;-84
2023/05/12 02:29:39;;;;;;;12.03;10.23;;;12.20;87.10;;;;;;5015803;28;20517;-84
2023/05/12 02:32:04;;;;;;;19.50;17.97;;;12.10;87.10;;;;;;5014233;28;20208;-84
2023/05/12 02:34:30;;;;;;;18.10;16.70;;;12.10;87.20;;;;;;5014052;28;20201;-85
2023/05/12 02:36:55;;;;;;;17.00;15.50;;;12.10;87.30;;;;;;5015263;28;20269;-84
2023/05/12 02:39:21;;;;;;;18.73;16.80;;;12.10;87.30;;;;;;5015474;28;20177;-84
2023/05/12 02:41:46;;;;;;;17.90;16.43;;;12.10;87.00;;;;;;5013981;28;20229;-84
2023/05/12 02:44:12;;;;;;;18.60;17.10;;;12.20;87.00;;;;;;5015288;28;20185;-84
2023/05/12 02:46:37;;;;;;;18.00;16.20;;;12.20;87.00;;;;;;5013978;28;20182;-84
2023/05/12 02:49:03;;;;;;;19.90;18.20;;;12.20;86.90;;;;;;5015058;28;20327;-84
2023/05/12 02:51:29;;;;;;;17.27;15.87;;;12.20;86.70;;;;;;5013709;28;20200;-84
2023/05/12 02:53:54;;;;;;;18.10;16.70;;;12.20;86.50;;;;;;5015005;28;20177;-84
2023/05/12 02:56:21;;;;;;;18.17;16.43;;;12.20;86.40;;;;;;5015017;28;20205;-84
2023/05/12 02:58:46;;;;;;;20.30;16.77;;;12.30;86.40;;;;;;5013741;28;20181;-84
2023/05/12 03:01:12;;;;;;;18.40;16.93;;;12.30;86.30;;;;;;5014897;28;20189;-84
2023/05/12 03:03:38;;;;;;;18.70;16.73;;;12.30;86.20;;;;;;5014844;28;20174;-84
2023/05/12 03:06:04;;;;;;;19.03;17.37;;;12.30;86.20;;;;;;5013644;28;20272;-84
2023/05/12 03:08:29;;;;;;;17.83;16.63;;;12.30;86.20;;;;;;5014854;28;20183;-84
2023/05/12 03:10:55;;;;;;;17.97;16.63;;;12.30;86.10;;;;;;5014594;28;20577;-84
2023/05/12 03:13:21;;;;;;;17.00;15.80;;;12.30;85.90;;;;;;5013427;28;20647;-84
2023/05/12 03:15:46;;;;;;;19.23;17.83;;;12.30;85.70;;;;;;5014697;28;20695;-84
2023/05/12 03:18:12;;;;;;;19.27;17.77;;;12.30;85.60;;;;;;5013999;28;20187;-84
2023/05/12 03:20:37;;;;;;;18.17;16.53;;;12.30;85.70;;;;;;5013312;28;20276;-84
2023/05/12 03:23:03;;;;;;;19.33;17.83;;;12.30;85.80;;;;;;5014530;28;20538;-84
2023/05/12 03:25:28;;;;;;;19.50;17.93;;;12.30;85.90;;;;;;5013128;28;20700;-84
2023/05/12 03:27:54;;;;;;;18.40;16.77;;;12.30;86.00;;;;;;5013162;28;20192;-85
2023/05/12 03:30:20;;;;;;;19.13;17.43;;;12.30;86.00;;;;;;5014264;28;20267;-83
2023/05/12 03:32:46;;;;;;;18.97;17.60;;;12.30;86.10;;;;;;5013069;28;20550;-84
2023/05/12 03:35:11;;;;;;;19.10;17.60;;;12.30;86.30;;;;;;5013059;28;20208;-84
2023/05/12 03:37:37;;;;;;;19.73;17.90;;;12.30;86.40;;;;;;5013066;28;20173;-84
2023/05/12 03:40:03;;;;;;;11.20;10.10;;;12.30;86.60;;;;;;5013266;28;20543;-84
2023/05/12 03:42:28;;;;;;;12.20;10.93;;;12.30;86.70;;;;;;5012964;28;20169;-84
2023/05/12 03:44:54;;;;;;;11.37;10.17;;;12.40;86.70;;;;;;5014460;28;20181;-84
2023/05/12 03:47:19;;;;;;;15.60;11.70;;;12.40;86.70;;;;;;5012856;28;20189;-83
2023/05/12 03:49:45;;;;;;;11.47;10.47;;;12.30;86.60;;;;;;5012707;28;20207;-84
2023/05/12 03:52:11;;;;;;;15.17;12.33;;;12.30;86.70;;;;;;5013908;28;20197;-84
2023/05/12 03:54:36;;;;;;;11.63;10.43;;;12.30;86.60;;;;;;5012781;28;20266;-84
2023/05/12 03:57:02;;;;;;;11.30;9.90;;;12.30;86.40;;;;;;5012721;28;20177;-83
2023/05/12 03:59:30;;;;;;;10.73;9.80;;;12.30;86.30;;;;;;5012660;28;20706;-84
2023/05/12 04:01:56;;;;;;;10.67;9.73;;;12.30;86.10;;;;;;5012553;28;20197;-84
2023/05/12 04:04:21;;;;;;;12.53;11.23;;;12.30;86.00;;;;;;5012569;28;20174;-84
2023/05/12 04:06:47;;;;;;;11.57;10.20;;;12.30;86.10;;;;;;5012588;28;20181;-84
2023/05/12 04:09:12;;;;;;;10.30;9.40;;;12.40;86.10;;;;;;5012469;28;20170;-84
2023/05/12 04:11:38;;;;;;;10.93;9.97;;;12.30;86.00;;;;;;5012538;28;20667;-84
2023/05/12 04:14:03;;;;;;;20.10;9.80;;;12.40;86.00;;;;;;5013728;28;20174;-84
2023/05/12 04:16:29;;;;;;;11.17;10.27;;;12.40;86.00;;;;;;5019662;28;20554;-86
2023/05/12 04:18:56;;;;;;;18.33;16.63;;;12.40;86.10;;;;;;5020358;28;20179;-85
2023/05/12 04:21:21;;;;;;;19.00;17.30;;;12.40;86.30;;;;;;5020031;28;20217;-85
2023/05/12 04:23:51;;;;;;;17.83;16.43;;;12.40;86.40;;;;;;5021962;28;20184;-84
2023/05/12 04:26:16;;;;;;;18.17;16.50;;;12.40;86.30;;;;;;5021476;28;20166;-86
2023/05/12 04:28:42;;;;;;;16.67;15.53;;;12.50;86.10;;;;;;5020131;28;20196;-86
2023/05/12 04:31:07;;;;;;;18.23;16.77;;;12.50;86.00;;;;;;5021912;28;20197;-85
2023/05/12 04:33:33;;;;;;;17.23;15.83;;;12.50;85.90;;;;;;5020341;28;20209;-85
2023/05/12 04:35:59;;;;;;;19.53;17.43;;;12.50;85.90;;;;;;5020016;28;20293;-86
2023/05/12 04:38:25;;;;;;;17.97;16.67;;;12.50;85.70;;;;;;5019769;28;20653;-85
2023/05/12 04:40:50;;;;;;;17.23;15.73;;;12.60;85.60;;;;;;5019425;28;20196;-83
2023/05/12 04:43:15;;;;;;;17.23;15.63;;;12.70;85.60;;;;;;5022025;28;20170;-85
2023/05/12 04:45:41;;;;;;;16.87;15.33;;;12.70;85.60;;;;;;5021678;28;20177;-86
2023/05/12 04:48:06;;;;;;;17.30;15.50;;;12.70;85.50;;;;;;5020305;28;20180;-86
2023/05/12 04:50:32;;;;;;;15.87;14.57;;;12.70;85.50;;;;;;5019681;28;20217;-85
2023/05/12 04:52:59;;;;;;;19.07;15.30;;;12.80;85.40;;;;;;5019831;28;20204;-86
2023/05/12 04:55:24;;;;;;;16.87;15.50;;;12.80;85.10;;;;;;5019900;28;20243;-86
2023/05/12 04:57:50;;;;;;;17.33;16.13;;;12.90;85.00;;;;;;5020105;28;20185;-85
2023/05/12 05:00:15;;;;;;;17.13;15.67;;;12.90;85.00;;;;;;5021073;28;20208;-85
2023/05/12 05:02:41;;;;;;;16.93;15.73;;;12.90;85.00;;;;;;5021164;28;20224;-86
2023/05/12 05:05:07;;;;;;;17.67;16.03;;;13.00;84.90;;;;;;5019999;28;20192;-85
2023/05/12 05:07:32;;;;;;;16.43;15.23;;;13.00;85.00;;;;;;5019974;28;20217;-85
2023/05/12 05:09:58;;;;;;;19.83;15.13;;;13.00;85.10;;;;;;5021548;28;20184;-85
2023/05/12 05:12:24;;;;;;;18.20;16.40;;;13.00;85.10;;;;;;5021246;28;20186;-85
2023/05/12 05:14:50;;;;;;;16.33;15.13;;;13.10;85.10;;;;;;5019719;28;20201;-85
2023/05/12 05:17:15;;;;;;;17.17;15.80;;;13.10;85.10;;;;;;5019798;28;20184;-86
2023/05/12 05:19:41;;;;;;;17.23;14.73;;;13.10;85.10;;;;;;5019882;28;20261;-86
2023/05/12 05:22:06;;;;;;;11.37;10.37;;;13.20;85.10;;;;;;5019048;28;20212;-86
2023/05/12 05:24:32;;;;;;;11.53;10.03;;;13.20;84.80;;;;;;5019309;28;20195;-85
2023/05/12 05:26:58;;;;;;;10.40;9.47;;;13.20;85.00;;;;;;5020612;28;20184;-86
2023/05/12 05:29:25;;;;;;;10.50;9.57;;;13.20;84.70;;;;;;5019520;28;20198;-84
2023/05/12 05:31:51;;;;;;;11.83;10.37;;;13.20;84.50;;;;;;5020712;28;20252;-86
2023/05/12 05:34:17;;;;;;;10.23;9.33;;;13.30;84.60;;;;;;5021149;28;20181;-85
2023/05/12 05:36:43;;;;;;;10.77;9.67;;;13.30;84.50;;;;;;5021789;28;20723;-84
2023/05/12 05:39:09;;;;;;;11.37;9.67;;;13.30;84.40;;;;;;5023126;28;20223;-86
2023/05/12 05:41:34;;;;;;;10.53;9.67;;;13.40;84.30;;;;;;5022543;28;20198;-84
2023/05/12 05:44:00;;;;;;;10.53;9.50;;;13.40;84.10;;;;;;5024084;28;20260;-85
2023/05/12 05:46:26;;;;;;;14.30;10.30;;;13.50;84.20;;;;;;5022902;28;20223;-85
2023/05/12 05:48:51;;;;;;;10.23;9.33;;;13.50;84.00;;;;;;5022773;28;20336;-85
2023/05/12 05:51:17;;;;;;;11.43;10.40;;;13.50;84.10;;;;;;5023494;28;20197;-85
2023/05/12 05:53:42;;;;;;;10.13;9.30;;;13.60;84.00;;;;;;5021040;28;20264;-85
2023/05/12 05:56:08;;;;;;;13.80;12.63;;;13.60;83.80;;;;;;5021234;28;20201;-86
2023/05/12 05:58:33;;;;;;;16.43;15.13;;;13.70;83.90;;;;;;5021150;28;20180;-85
2023/05/12 06:00:59;;;;;;;16.70;15.07;;;13.80;83.60;;;;;;5021871;28;20236;-84
2023/05/12 06:03:25;;;;;;;16.30;14.87;;;13.80;83.70;;;;;;5022214;28;20173;-85
2023/05/12 06:05:51;;;;;;;16.73;15.30;;;13.80;83.60;;;;;;5021768;28;20553;-85
2023/05/12 06:08:17;;;;;;;16.93;15.60;;;13.90;83.30;;;;;;5021839;28;20177;-86
2023/05/12 06:10:42;;;;;;;16.33;14.93;;;13.90;83.00;;;;;;5020710;28;20201;-85
2023/05/12 06:13:08;;;;;;;21.37;16.87;;;14.00;82.90;;;;;;5020644;28;20181;-85
2023/05/12 06:15:34;;;;;;;23.67;15.87;;;14.10;82.90;;;;;;5023362;28;20197;-85
2023/05/12 06:17:59;;;;;;;16.83;15.47;;;14.20;82.40;;;;;;5022966;28;20170;-84
2023/05/12 06:20:25;;;;;;;17.07;15.37;;;14.20;82.80;;;;;;5024475;28;20197;-84
2023/05/12 06:22:50;;;;;;;17.77;16.37;;;14.20;82.50;;;;;;5024243;28;20154;-84
2023/05/12 06:25:16;;;;;;;14.33;11.57;;;14.30;82.50;;;;;;5025492;28;20177;-84
2023/05/12 06:27:41;;;;;;;12.05;11.10;;;14.30;82.00;;;;;;5023229;28;20193;-86
2023/05/12 06:30:08;;;;;;;12.73;11.33;;;14.40;82.30;;;;;;5021020;28;20178;-85
2023/05/12 06:32:34;;;;;;;11.68;10.77;;;14.50;82.60;;;;;;5020103;28;20548;-85
2023/05/12 06:34:59;;;;;;;15.15;13.85;;;14.50;81.50;;;;;;5021481;28;20227;-86
2023/05/12 06:37:25;;;;;;;17.07;15.77;;;14.60;81.50;;;;;;5022994;28;20173;-86
2023/05/12 06:39:50;;;;;;;16.50;15.20;;;14.70;81.50;;;;;;5022432;28;20178;-85
2023/05/12 06:42:16;;;;;;;15.93;14.43;;;14.70;81.50;;;;;;5025157;28;20197;-87
2023/05/12 06:44:41;;;;;;;17.15;15.55;;;14.80;81.30;;;;;;5024697;28;20181;-85
2023/05/12 06:47:07;;;;;;;17.88;16.42;;;14.80;81.30;;;;;;5021238;28;20190;-86
2023/05/12 06:49:35;;;;;;;16.83;15.52;;;14.90;80.50;;;;;;5021950;28;20561;-85
2023/05/12 06:52:02;;;;;;;17.92;16.10;;;15.00;80.40;;;;;;5024531;28;20189;-86
2023/05/12 06:54:28;;;;;;;18.00;16.55;;;15.00;79.90;;;;;;5022699;28;20245;-85
2023/05/12 06:56:53;;;;;;;19.77;15.55;;;15.10;79.40;;;;;;5021539;28;20170;-85
2023/05/12 06:59:19;;;;;;;25.20;16.10;;;15.20;80.20;;;;;;5019206;28;20240;-86
2023/05/12 07:01:44;;;;;;;18.80;17.30;;;15.30;79.80;;;;;;5021265;28;20208;-87
2023/05/12 07:04:10;;;;;;;16.52;15.20;;;15.40;79.10;;;;;;5019409;28;20181;-87
2023/05/12 07:06:35;;;;;;;18.00;16.23;;;15.40;79.00;;;;;;5021507;28;20185;-87
2023/05/12 07:09:01;;;;;;;18.33;16.58;;;15.50;78.60;;;;;;5019338;28;20181;-88
2023/05/12 07:11:27;;;;;;;17.45;15.82;;;15.60;78.40;;;;;;5020360;28;20193;-87
2023/05/12 07:13:52;;;;;;;11.43;10.27;;;15.60;77.70;;;;;;5020052;28;20178;-87
2023/05/12 07:16:18;;;;;;;15.10;11.10;;;15.70;78.10;;;;;;5020326;28;20219;-87
2023/05/12 07:18:44;;;;;;;13.60;11.07;;;15.80;77.20;;;;;;5019345;28;20174;-87
2023/05/12 07:21:10;;;;;;;13.40;11.98;;;15.90;76.80;;;;;;5020564;28;20605;-87
2023/05/12 07:23:36;;;;;;;12.55;11.52;;;16.00;76.50;;;;;;5020172;28;20173;-88
2023/05/12 07:26:04;;;;;;;12.52;11.45;;;16.00;75.50;;;;;;5020679;28;20643;-87
2023/05/12 07:28:31;;;;;;;11.90;10.77;;;16.10;75.40;;;;;;5019297;28;20184;-88
2023/05/12 07:30:58;;;;;;;12.85;11.75;;;16.20;75.20;;;;;;5018359;28;20193;-87
2023/05/12 07:33:23;;;;;;;12.73;11.73;;;16.30;74.30;;;;;;5018445;28;20606;-87
2023/05/12 07:35:49;;;;;;;13.15;11.85;;;16.30;75.30;;;;;;5018955;28;20236;-87
2023/05/12 07:38:14;;;;;;;21.15;19.02;;;16.40;74.90;;;;;;5019838;28;20576;-87
2023/05/12 07:40:40;;;;;;;20.67;19.13;;;16.50;73.80;;;;;;5020404;28;20193;-87
2023/05/12 07:43:05;;;;;;;19.75;18.15;;;16.60;73.90;;;;;;5019045;28;20220;-88
2023/05/12 07:45:31;;;;;;;20.35;18.75;;;16.70;73.90;;;;;;5019307;28;20208;-87
2023/05/12 07:47:56;;;;;;;20.98;19.33;;;16.70;74.60;;;;;;5018064;28;20639;-87
2023/05/12 07:50:22;;;;;;;20.00;18.60;;;16.70;72.80;;;;;;5021232;28;20220;-87
2023/05/12 07:52:49;;;;;;;20.88;19.17;;;16.80;74.10;;;;;;5019363;28;20177;-87
2023/05/12 07:55:15;;;;;;;21.63;19.40;;;16.90;74.10;;;;;;5018185;28;20220;-88
2023/05/12 07:57:41;;;;;;;20.63;19.08;;;17.00;73.20;;;;;;5018580;28;20180;-87
2023/05/12 08:00:08;;;;;;;21.48;19.75;;;17.10;72.60;;;;;;5019117;28;20169;-87
2023/05/12 08:02:35;;;;;;;20.00;18.35;;;17.20;70.90;;;;;;5018322;28;20181;-87
2023/05/12 08:05:01;;;;;;;21.23;19.58;;;17.30;73.60;;;;;;5017099;28;20273;-87
2023/05/12 08:07:26;;;;;;;20.92;19.42;;;17.30;72.00;;;;;;5018779;28;20217;-87
2023/05/12 08:09:54;;;;;;;21.23;19.27;;;17.50;72.90;;;;;;5018785;28;20181;-88
2023/05/12 08:12:20;;;;;;;21.90;20.30;;;17.60;73.10;;;;;;5022283;28;20285;-86
2023/05/12 08:14:45;;;;;;;22.35;20.75;;;17.70;71.90;;;;;;5022339;28;20611;-85
2023/05/12 08:17:11;;;;;;;16.52;15.13;;;17.80;68.90;;;;;;5025036;28;20237;-87
2023/05/12 08:19:36;;;;;;;16.35;14.93;;;17.90;68.40;;;;;;5025040;28;20173;-86
2023/05/12 08:22:03;;;;;;;15.15;13.70;;;18.10;69.10;;;;;;5023223;28;20233;-87
2023/05/12 08:24:28;;;;;;;16.20;14.90;;;18.20;70.40;;;;;;5022721;28;20176;-87
2023/05/12 08:26:54;;;;;;;16.40;15.20;;;18.20;68.10;;;;;;5024058;28;20545;-87
2023/05/12 08:29:19;;;;;;;16.48;15.05;;;18.30;69.50;;;;;;5021803;28;20182;-87
2023/05/12 08:31:45;;;;;;;16.88;15.20;;;18.30;68.20;;;;;;5022601;28;20189;-88
2023/05/12 08:34:10;;;;;;;16.00;14.73;;;18.50;69.00;;;;;;5022614;28;20640;-87
2023/05/12 08:36:39;;;;;;;16.38;14.90;;;18.50;68.10;;;;;;5022812;28;20279;-87
2023/05/12 08:39:06;;;;;;;16.58;15.38;;;18.60;67.00;;;;;;5022769;28;20208;-87
2023/05/12 08:42:01;;;;;;;16.85;15.55;;;18.70;67.70;;;;;;5023446;28;20561;-87
2023/05/12 08:44:27;;;;;;;17.27;15.55;;;18.70;67.20;;;;;;5023316;28;20154;-86
2023/05/12 08:46:55;;;;;;;22.23;20.23;;;18.80;68.80;;;;;;5023127;28;20227;-87
2023/05/12 08:49:23;;;;;;;25.17;22.65;;;18.90;67.10;;;;;;5022471;28;20730;-87
2023/05/12 08:51:51;;;;;;;22.00;20.40;;;19.00;68.10;;;;;;5022647;28;20201;-87
2023/05/12 08:54:19;;;;;;;23.40;21.63;;;19.00;66.10;;;;;;5024065;28;20176;-87
2023/05/12 08:56:45;;;;;;;19.98;18.50;;;19.10;64.80;;;;;;5022817;28;20177;-87
2023/05/12 08:59:12;;;;;;;21.92;20.17;;;19.20;64.50;;;;;;5018920;28;20181;-87
2023/05/12 09:01:41;;;;;;;22.08;20.38;;;19.20;63.80;;;;;;5019237;28;20200;-87
2023/05/12 09:04:07;;;;;;;21.27;19.55;;;19.20;64.50;;;;;;5018441;28;20178;-87
2023/05/12 09:06:34;;;;;;;23.45;21.77;;;19.20;63.50;;;;;;5018127;28;20187;-87
2023/05/12 09:08:59;;;;;;;24.08;22.17;;;19.40;66.00;;;;;;5021909;28;20249;-87
2023/05/12 09:11:25;;;;;;;23.58;21.80;;;19.60;67.40;;;;;;5023967;28;20706;-87
2023/05/12 09:14:03;;;;;;;24.05;22.17;;;19.90;66.60;;;;;;5023043;28;20188;-88
2023/05/12 09:16:34;;;;;;;23.60;21.80;;;19.90;62.70;;;;;;5023038;28;20239;-87
2023/05/12 09:19:00;;;;;;;23.08;21.30;;;19.80;61.00;;;;;;5025056;28;20570;-87
2023/05/12 09:21:27;;;;;;;17.85;16.50;;;20.00;62.60;;;;;;5023633;28;20239;-87
2023/05/12 09:23:55;;;;;;;19.58;17.98;;;20.00;61.00;;;;;;5022798;28;20180;-87
2023/05/12 09:26:21;;;;;;;18.08;15.77;;;20.30;63.60;;;;;;5022969;28;20173;-87
2023/05/12 09:28:47;;;;;;;16.95;15.57;;;20.50;61.10;;;;;;5021788;28;20181;-87
2023/05/12 09:31:17;;;;;;;16.45;15.15;;;20.50;57.50;;;;;;5021823;28;20197;-87
2023/05/12 09:33:43;;;;;;;18.80;17.05;;;20.60;59.70;;;;;;5021563;28;20162;-87
2023/05/12 09:36:09;;;;;;;18.83;17.42;;;20.60;57.60;;;;;;5019630;28;20208;-87
2023/05/12 09:38:34;;;;;;;18.77;17.38;;;20.80;56.70;;;;;;5020972;28;20220;-87
2023/05/12 09:41:00;;;;;;;18.02;16.52;;;20.80;56.00;;;;;;5019824;28;20726;-87
2023/05/12 09:43:26;;;;;;;17.45;15.90;;;21.00;56.70;;;;;;5019222;28;20316;-87
2023/05/12 09:45:51;;;;;;;18.88;17.02;;;21.10;53.70;;;;;;5019663;28;20231;-88
2023/05/12 09:48:17;;;;;;;19.00;17.60;;;21.20;51.90;;;;;;5019971;28;20180;-87
2023/05/12 09:50:46;;;;;;;17.30;15.77;;;21.30;55.10;;;;;;5022795;28;20251;-89
2023/05/12 09:53:13;;;;;;;23.27;20.95;;;21.50;52.90;;;;;;5022988;28;20176;-87
2023/05/12 09:55:38;;;;;;;22.33;20.83;;;21.50;47.90;;;;;;5019582;28;20229;-87
2023/05/12 09:58:08;;;;;;;21.80;20.00;;;21.60;52.60;;;;;;5018850;28;20173;-87
2023/05/12 10:00:37;;;;;;;23.67;21.88;;;21.60;51.80;;;;;;5018846;28;20192;-87
2023/05/12 10:03:10;;;;;;;24.20;22.15;;;21.80;53.10;;;;;;5018724;28;20193;-87
2023/05/12 10:05:42;;;;;;;23.08;21.10;;;21.80;49.80;;;;;;5017781;28;20168;-87
2023/05/12 10:08:11;;;;;;;23.30;21.15;;;21.80;49.20;;;;;;5016073;28;20235;-87
2023/05/12 10:10:37;;;;;;;22.23;20.52;;;21.90;52.30;;;;;;5014658;28;20201;-86
2023/05/12 10:13:04;;;;;;;22.25;20.33;;;21.90;49.10;;;;;;5014694;28;20272;-86
2023/05/12 10:15:30;;;;;;;21.55;19.92;;;22.00;49.50;;;;;;5014462;28;20355;-87
2023/05/12 10:17:58;;;;;;;21.02;19.63;;;22.00;49.70;;;;;;5014541;28;20184;-86
2023/05/12 10:20:24;;;;;;;21.42;19.50;;;22.00;48.10;;;;;;5013984;28;20687;-86
2023/05/12 10:22:52;;;;;;;16.10;15.10;;;22.00;47.90;;;;;;5014434;28;20182;-87
2023/05/12 10:25:18;;;;;;;16.38;15.05;;;22.10;47.70;;;;;;5015906;28;20651;-86
2023/05/12 10:27:43;;;;;;;16.38;14.88;;;22.20;47.30;;;;;;5015854;28;20550;-86
2023/05/12 10:30:10;;;;;;;17.27;15.98;;;22.10;45.30;;;;;;5015447;28;20170;-86
2023/05/12 10:32:35;;;;;;;16.55;14.98;;;22.00;43.30;;;;;;5014223;28;20181;-86
2023/05/12 10:35:09;;;;;;;16.45;15.27;;;22.10;44.70;;;;;;5015365;28;20239;-86
2023/05/12 10:37:36;;;;;;;16.95;15.25;;;22.30;44.80;;;;;;5014161;28;20651;-86
2023/05/12 10:40:03;;;;;;;15.93;14.68;;;22.40;45.50;;;;;;5015272;28;20646;-86
2023/05/12 10:42:37;;;;;;;16.48;15.00;;;22.50;45.70;;;;;;5015278;28;20166;-86
2023/05/12 10:45:17;;;;;;;15.15;14.15;;;22.60;46.90;;;;;;5014069;28;20181;-86
2023/05/12 10:47:43;;;;;;;16.75;15.30;;;22.40;43.70;;;;;;5013964;28;20659;-87
2023/05/12 10:50:12;;;;;;;17.85;16.30;;;21.70;45.80;;;;;;5015006;28;20189;-86
2023/05/12 10:52:53;;;;;;;16.30;15.13;;;21.20;46.50;;;;;;5015344;28;20212;-87
2023/05/12 10:55:30;;;;;;;17.05;15.65;;;21.00;48.50;;;;;;5015191;28;20205;-87
2023/05/12 10:58:04;;;;;;;23.13;21.25;;;20.90;47.50;;;;;;5013793;28;20177;-86
2023/05/12 11:00:29;;;;;;;23.42;21.67;;;21.00;45.60;;;;;;5014393;28;20269;-86
2023/05/12 11:02:55;;;;;;;23.92;21.92;;;21.60;44.20;;;;;;5013838;28;20256;-86
2023/05/12 11:05:20;;;;;;;22.23;20.30;;;22.20;43.20;;;;;;5015204;28;20173;-87
2023/05/12 11:07:48;;;;;;;21.20;19.52;;;22.50;41.20;;;;;;5013653;28;20181;-87
2023/05/12 11:10:14;;;;;;;21.25;19.58;;;22.80;41.60;;;;;;5013572;28;20260;-87
2023/05/12 11:12:42;;;;;;;21.75;20.10;;;22.80;42.60;;;;;;5013565;28;20664;-85
2023/05/12 11:15:08;;;;;;;22.35;20.75;;;23.00;45.40;;;;;;5013463;28;20296;-85
2023/05/12 11:17:40;;;;;;;24.30;22.02;;;23.00;41.30;;;;;;5014978;28;20600;-86
2023/05/12 11:20:08;;;;;;;23.95;22.23;;;22.50;44.50;;;;;;5015073;28;20182;-86
2023/05/12 11:22:34;;;;;;;22.65;20.73;;;22.10;41.20;;;;;;5013298;28;20235;-85
2023/05/12 11:25:08;;;;;;;18.27;17.08;;;21.80;43.60;;;;;;5014434;28;20643;-85
2023/05/12 11:27:38;;;;;;;18.10;16.60;;;22.20;45.20;;;;;;5013226;28;20265;-85
2023/05/12 11:30:04;;;;;;;18.05;16.73;;;22.30;38.80;;;;;;5013813;28;20170;-85
2023/05/12 11:32:29;;;;;;;18.67;17.38;;;21.90;42.90;;;;;;5012750;28;20177;-85
2023/05/12 11:34:55;;;;;;;18.50;17.13;;;21.70;42.20;;;;;;5014310;28;20201;-85
2023/05/12 11:37:21;;;;;;;18.50;16.90;;;22.00;42.10;;;;;;5014276;28;20648;-85
2023/05/12 11:39:47;;;;;;;18.35;17.05;;;22.20;40.60;;;;;;5013015;28;20181;-86
2023/05/12 11:42:12;;;;;;;18.67;16.95;;;22.00;40.70;;;;;;5013075;28;20196;-85
2023/05/12 11:44:48;;;;;;;18.30;17.00;;;21.70;40.90;;;;;;5014139;28;20536;-85
2023/05/12 11:47:15;;;;;;;18.30;17.00;;;21.50;44.30;;;;;;5014460;28;20161;-85
2023/05/12 11:49:48;;;;;;;18.20;16.80;;;21.70;42.50;;;;;;5013952;28;20231;-85
2023/05/12 11:52:14;;;;;;;18.75;17.17;;;21.80;42.80;;;;;;5012673;28;20697;-85
2023/05/12 11:54:56;;;;;;;18.13;16.58;;;21.80;41.70;;;;;;5012718;28;20312;-85
2023/05/12 11:57:30;;;;;;;17.67;16.38;;;21.70;41.40;;;;;;5014104;28;20162;-85
2023/05/12 12:00:05;;;;;;;18.23;17.00;;;22.00;39.40;;;;;;5014196;28;20632;-85
2023/05/12 12:02:32;;;;;;;17.80;16.55;;;22.40;42.80;;;;;;5012682;28;20242;-85
2023/05/12 12:04:57;;;;;;;23.02;21.50;;;22.60;37.90;;;;;;5012592;28;20209;-85
2023/05/12 12:07:30;;;;;;;23.83;21.48;;;22.30;39.60;;;;;;5012550;28;20212;-85
2023/05/12 12:09:55;;;;;;;22.52;20.98;;;21.80;42.40;;;;;;5012738;28;20188;-85
2023/05/12 12:12:21;;;;;;;22.58;21.08;;;21.90;40.60;;;;;;5012479;28;20201;-85
2023/05/12 12:14:47;;;;;;;23.38;21.67;;;22.00;38.70;;;;;;5012818;28;20205;-85
2023/05/12 12:17:12;;;;;;;22.67;20.98;;;22.20;38.40;;;;;;5012278;28;20551;-85
2023/05/12 12:19:38;;;;;;;23.08;21.17;;;22.40;39.60;;;;;;5013757;28;20173;-85
2023/05/12 12:22:03;;;;;;;22.42;20.55;;;22.50;38.70;;;;;;5013582;28;20240;-85
2023/05/12 12:24:29;;;;;;;23.38;21.55;;;22.70;37.60;;;;;;5012299;28;20239;-84